Scottsburg, Virginia
Current Conditions -  °F | °C
As of 5:15 PM on Friday 24 Oct 2014 (Local Time) from KW78 Reporting Station
Clear Clear  
Wind Chill: 66°   Ceiling: Unl
Heat Index: 66°   Visibility: 10mi
Dew Point: 44°   Wind: 0mph
Humidity: 45%   Direction: NA
Pressure: 29.96"   Gusts: NA
Location:  36.76°N, 78.79°W
Report Text: KW78 242115Z AUTO 00000KT 10SM CLR 19/07 A2996 RMK AO1 T01880067
Loading
Personal Weather Stations






























Interactive Weather Map
Tropical Storm Tracking
New forecast layout! Learn more

10-Day Weather Forecast

Advertisements
Track Severe Weather on mobile